Time;durP1;ratioP1;P1;durP2;ratioP2;P2;SDS_P1;SDS_P2;PMS_P1;PMS_P2;Temp;Humidity;BMP_temperature;BMP_pressure;BME280_temperature;BME280_humidity;BME280_pressure;Samples;Min_cycle;Max_cycle;Signal;HPM_P1;HPM_P2
2020/12/13 00:00:46;;;;;;;62.27;29.57;;;3.70;99.90;;;;;;4975957;28;20172;-66
2020/12/13 00:03:12;;;;;;;63.03;28.60;;;3.80;99.90;;;;;;4975590;28;20176;-65
2020/12/13 00:05:38;;;;;;;60.80;28.00;;;3.80;99.90;;;;;;4975510;28;20184;-65
2020/12/13 00:08:04;;;;;;;56.35;27.48;;;4.00;99.90;;;;;;4975896;28;20621;-64
2020/12/13 00:10:30;;;;;;;74.73;32.70;;;4.00;99.90;;;;;;4975233;28;20283;-64
2020/12/13 00:12:56;;;;;;;59.80;29.33;;;4.00;99.90;;;;;;4979650;28;20203;-65
2020/12/13 00:15:22;;;;;;;58.23;27.30;;;3.90;94.00;;;;;;4981346;28;20514;-64
2020/12/13 00:17:47;;;;;;;64.57;29.63;;;3.80;82.70;;;;;;4981437;28;20463;-64
2020/12/13 00:20:14;;;;;;;65.97;26.37;;;3.70;76.50;;;;;;4982118;28;20184;-64
2020/12/13 00:22:40;;;;;;;60.55;27.80;;;3.70;80.60;;;;;;4981825;28;20488;-63
2020/12/13 00:25:06;;;;;;;61.73;27.90;;;3.60;90.10;;;;;;4983875;28;20191;-64
2020/12/13 00:27:31;;;;;;;58.97;27.17;;;3.50;98.80;;;;;;4983156;28;20184;-62
2020/12/13 00:29:57;;;;;;;65.63;31.40;;;3.60;99.90;;;;;;4983734;28;20512;-63
2020/12/13 00:32:29;;;;;;;56.20;27.90;;;3.80;99.90;;;;;;4984436;28;20175;-61
2020/12/13 00:34:56;;;;;;;64.85;28.73;;;3.90;99.90;;;;;;4984665;28;20172;-62
2020/12/13 00:37:22;;;;;;;72.20;30.63;;;3.80;99.90;;;;;;4983528;28;20184;-64
2020/12/13 00:39:47;;;;;;;65.83;28.80;;;4.00;99.90;;;;;;4984005;28;20186;-61
2020/12/13 00:42:13;;;;;;;63.40;31.00;;;3.90;97.80;;;;;;4984007;28;20762;-61
2020/12/13 00:44:38;;;;;;;66.00;29.10;;;3.90;93.90;;;;;;4983396;28;20216;-64
2020/12/13 00:47:04;;;;;;;67.77;29.17;;;3.80;90.20;;;;;;4984150;28;20194;-64
2020/12/13 00:49:29;;;;;;;69.73;30.57;;;3.80;92.40;;;;;;4984831;28;20226;-63
2020/12/13 00:52:03;;;;;;;64.90;28.13;;;3.80;97.10;;;;;;4985830;28;20192;-63
2020/12/13 00:54:29;;;;;;;58.97;28.80;;;3.90;99.90;;;;;;4983878;28;20188;-62
2020/12/13 00:56:55;;;;;;;69.17;29.77;;;3.90;99.50;;;;;;4983741;28;20285;-62
2020/12/13 00:59:20;;;;;;;61.90;29.40;;;3.90;98.50;;;;;;4983780;28;20299;-65
2020/12/13 01:01:46;;;;;;;66.80;27.40;;;3.80;95.10;;;;;;4983703;28;20634;-63
2020/12/13 01:04:12;;;;;;;59.53;26.63;;;3.80;96.80;;;;;;4982512;28;20733;-65
2020/12/13 01:06:38;;;;;;;67.63;29.70;;;3.80;99.90;;;;;;4982843;28;20180;-65
2020/12/13 01:09:04;;;;;;;57.63;27.70;;;3.80;99.90;;;;;;4982094;28;20184;-65
2020/12/13 01:11:32;;;;;;;65.73;30.63;;;3.60;99.90;;;;;;4985657;28;20517;-64
2020/12/13 01:13:58;;;;;;;64.05;29.92;;;3.60;99.90;;;;;;4982014;28;20782;-62
2020/12/13 01:16:26;;;;;;;62.75;28.70;;;3.60;99.90;;;;;;4983150;28;20593;-64
2020/12/13 01:18:52;;;;;;;67.70;28.20;;;3.60;99.90;;;;;;4982359;28;20274;-62
2020/12/13 01:21:24;;;;;;;64.90;29.23;;;3.50;99.90;;;;;;4983075;28;20176;-65
2020/12/13 01:23:50;;;;;;;65.57;28.40;;;3.50;99.90;;;;;;4980134;28;20181;-63
2020/12/13 01:26:17;;;;;;;68.38;27.50;;;3.60;99.90;;;;;;4979170;28;20643;-63
2020/12/13 01:28:44;;;;;;;72.78;30.10;;;3.50;99.90;;;;;;4976525;28;20195;-62
2020/12/13 01:31:15;;;;;;;69.53;26.67;;;3.60;99.90;;;;;;4977842;28;20184;-63
2020/12/13 01:33:41;;;;;;;63.75;27.35;;;3.80;99.90;;;;;;4978754;28;20191;-65
2020/12/13 01:36:25;;;;;;;67.55;29.77;;;3.60;99.90;;;;;;4978589;28;20191;-63
2020/12/13 01:38:51;;;;;;;66.93;30.63;;;3.60;99.90;;;;;;4978038;28;20200;-63
2020/12/13 01:41:17;;;;;;;69.50;29.85;;;3.60;99.90;;;;;;4977023;28;20252;-65
2020/12/13 01:44:09;;;;;;;62.25;29.63;;;3.60;99.90;;;;;;4976544;28;20176;-60
2020/12/13 01:46:37;;;;;;;67.28;27.30;;;3.60;99.90;;;;;;4975719;28;20244;-64
2020/12/13 01:49:07;;;;;;;73.55;28.80;;;3.60;99.90;;;;;;4977744;28;20180;-61
2020/12/13 01:54:12;;;;;;;62.65;30.98;;;3.70;99.90;;;;;;4978402;28;20184;-63
2020/12/13 01:56:41;;;;;;;69.80;29.20;;;3.70;99.90;;;;;;4977850;28;20262;-63
2020/12/13 01:59:08;;;;;;;64.60;27.25;;;3.70;99.90;;;;;;4977529;28;20679;-65
2020/12/13 02:01:38;;;;;;;66.57;28.55;;;3.80;99.90;;;;;;4977905;28;20239;-61
2020/12/13 02:04:05;;;;;;;70.22;30.13;;;3.80;99.90;;;;;;4977286;28;20180;-64
2020/12/13 02:06:33;;;;;;;63.20;28.00;;;3.80;99.90;;;;;;4977580;28;20180;-63
2020/12/13 02:08:58;;;;;;;71.63;28.80;;;3.70;99.90;;;;;;4977798;28;20668;-63
2020/12/13 02:11:24;;;;;;;67.73;28.13;;;3.70;99.90;;;;;;4977852;28;20216;-64
2020/12/13 02:13:50;;;;;;;52.43;23.43;;;3.70;99.90;;;;;;4977298;28;20664;-64
2020/12/13 02:16:17;;;;;;;62.13;26.20;;;3.80;99.90;;;;;;4977302;28;20192;-64
2020/12/13 02:18:44;;;;;;;63.00;24.58;;;3.80;99.90;;;;;;4977203;28;20212;-61
2020/12/13 02:21:11;;;;;;;63.80;25.88;;;3.70;99.90;;;;;;4977459;28;20493;-63
2020/12/13 02:23:41;;;;;;;62.88;25.98;;;3.80;99.90;;;;;;4976909;28;20230;-60
2020/12/13 02:26:08;;;;;;;72.10;25.00;;;3.90;99.90;;;;;;4976849;28;20195;-60
2020/12/13 02:28:35;;;;;;;65.80;28.65;;;3.80;99.90;;;;;;4977113;28;20187;-63
2020/12/13 02:31:03;;;;;;;58.33;25.15;;;4.00;99.90;;;;;;4975451;28;20212;-63
2020/12/13 02:33:29;;;;;;;65.43;26.75;;;4.00;99.90;;;;;;4976825;28;20188;-61
2020/12/13 02:35:54;;;;;;;63.30;25.58;;;4.00;99.90;;;;;;4976616;28;20176;-63
2020/12/13 02:38:20;;;;;;;61.30;28.10;;;3.80;99.90;;;;;;4976449;28;20214;-62
2020/12/13 02:40:46;;;;;;;76.37;27.43;;;3.70;99.90;;;;;;4977606;28;20266;-61
2020/12/13 02:43:11;;;;;;;65.23;25.97;;;3.70;99.90;;;;;;4976572;28;20180;-63
2020/12/13 02:45:37;;;;;;;59.53;25.60;;;3.80;99.90;;;;;;4959737;28;20194;-61
2020/12/13 02:48:02;;;;;;;63.33;26.63;;;3.80;99.90;;;;;;4977405;28;20180;-63
2020/12/13 02:50:31;;;;;;;59.80;26.73;;;3.90;99.90;;;;;;4976763;28;20203;-63
2020/12/13 02:52:57;;;;;;;64.13;27.45;;;3.90;99.90;;;;;;4977071;28;20188;-64
2020/12/13 02:55:23;;;;;;;70.78;25.83;;;3.90;99.90;;;;;;4975741;28;20565;-63
2020/12/13 02:57:48;;;;;;;62.43;25.80;;;3.90;99.90;;;;;;4976538;28;20228;-63
2020/12/13 03:00:14;;;;;;;67.53;25.70;;;4.00;99.90;;;;;;4975688;28;20195;-63
2020/12/13 03:02:39;;;;;;;68.43;25.40;;;4.20;99.90;;;;;;4976510;28;20215;-61
2020/12/13 03:05:05;;;;;;;53.70;25.30;;;4.20;99.90;;;;;;4976581;28;20629;-63
2020/12/13 03:07:31;;;;;;;67.57;27.20;;;4.10;99.90;;;;;;4976648;28;20183;-64
2020/12/13 03:09:56;;;;;;;58.97;27.70;;;4.00;99.90;;;;;;4978187;28;20613;-62
2020/12/13 03:12:22;;;;;;;62.13;24.60;;;4.00;99.90;;;;;;4977878;28;20606;-61
2020/12/13 03:14:47;;;;;;;59.27;25.17;;;3.90;93.50;;;;;;4977554;28;20183;-64
2020/12/13 03:17:13;;;;;;;62.87;24.67;;;3.90;92.90;;;;;;4976126;28;20267;-64
2020/12/13 03:19:38;;;;;;;61.97;24.87;;;3.90;91.80;;;;;;4975902;28;20215;-61
2020/12/13 03:22:04;;;;;;;57.33;22.60;;;3.60;90.80;;;;;;4976313;28;20180;-62
2020/12/13 03:24:29;;;;;;;67.03;26.00;;;3.70;99.90;;;;;;4975814;28;20632;-62
2020/12/13 03:26:55;;;;;;;62.10;25.87;;;3.70;99.90;;;;;;4975886;28;20207;-64
2020/12/13 03:29:20;;;;;;;59.90;25.87;;;3.70;99.90;;;;;;4975524;28;20605;-62
2020/12/13 03:31:47;;;;;;;58.33;24.67;;;3.70;99.90;;;;;;4975285;28;20184;-61
2020/12/13 03:34:13;;;;;;;56.30;25.35;;;3.60;99.90;;;;;;4975042;28;20628;-61
2020/12/13 03:36:38;;;;;;;48.27;23.37;;;3.50;99.90;;;;;;4975367;28;20184;-61
2020/12/13 03:39:04;;;;;;;54.97;22.43;;;3.50;99.90;;;;;;4975299;28;20246;-64
2020/12/13 03:41:30;;;;;;;61.33;27.00;;;3.60;99.90;;;;;;4975253;28;20188;-64
2020/12/13 03:43:55;;;;;;;62.17;25.73;;;3.60;99.90;;;;;;4974774;28;20891;-64
2020/12/13 03:46:21;;;;;;;59.70;23.83;;;3.70;99.90;;;;;;4974571;28;20172;-64
2020/12/13 03:48:46;;;;;;;61.03;26.47;;;3.70;99.90;;;;;;4974770;28;20259;-64
2020/12/13 03:51:12;;;;;;;57.70;25.53;;;3.60;99.90;;;;;;4974074;28;20184;-64
2020/12/13 03:53:37;;;;;;;60.00;22.87;;;3.60;99.90;;;;;;4973947;28;20196;-61
2020/12/13 03:56:03;;;;;;;58.43;25.13;;;3.50;99.90;;;;;;4974975;28;20188;-61
2020/12/13 03:58:28;;;;;;;51.37;23.00;;;3.40;99.90;;;;;;4973896;28;20216;-62
2020/12/13 04:00:54;;;;;;;58.00;24.13;;;3.40;99.90;;;;;;4975089;28;20184;-61
2020/12/13 04:03:20;;;;;;;50.87;23.70;;;3.50;99.90;;;;;;4974607;28;20187;-61
2020/12/13 04:05:45;;;;;;;55.87;21.77;;;3.50;99.90;;;;;;4975029;28;20192;-61
2020/12/13 04:08:11;;;;;;;48.57;21.87;;;3.40;99.90;;;;;;4975385;28;20594;-61
2020/12/13 04:10:36;;;;;;;56.10;23.80;;;3.40;99.90;;;;;;4975076;28;20192;-61
2020/12/13 04:13:02;;;;;;;62.93;25.50;;;3.40;99.90;;;;;;4974849;28;20624;-61
2020/12/13 04:15:27;;;;;;;57.43;24.50;;;3.50;99.90;;;;;;4975237;28;20184;-61
2020/12/13 04:17:53;;;;;;;61.83;24.10;;;3.70;99.90;;;;;;4974871;28;20254;-61
2020/12/13 04:20:19;;;;;;;53.20;22.90;;;3.70;99.90;;;;;;4974769;28;20270;-61
2020/12/13 04:22:44;;;;;;;58.03;23.30;;;3.70;99.90;;;;;;4974726;28;20188;-61
2020/12/13 04:25:10;;;;;;;59.97;23.20;;;3.50;99.90;;;;;;4974614;28;20184;-61
2020/12/13 04:27:36;;;;;;;54.87;24.13;;;3.60;99.90;;;;;;4974619;28;20202;-61
2020/12/13 04:30:02;;;;;;;55.10;23.53;;;3.50;99.90;;;;;;4974533;28;20234;-61
2020/12/13 04:32:28;;;;;;;57.83;24.67;;;3.50;99.90;;;;;;4973215;28;20188;-64
2020/12/13 04:34:53;;;;;;;60.83;25.90;;;3.60;99.90;;;;;;4974452;28;20191;-62
2020/12/13 04:37:23;;;;;;;61.80;24.17;;;3.60;99.90;;;;;;4974772;28;20189;-64
2020/12/13 04:39:49;;;;;;;69.18;25.23;;;3.70;99.90;;;;;;4974883;28;20187;-61
2020/12/13 04:42:15;;;;;;;52.55;24.90;;;3.70;99.90;;;;;;4974900;28;20223;-61
2020/12/13 04:44:41;;;;;;;46.77;22.00;;;3.80;99.90;;;;;;4974260;28;20215;-61
2020/12/13 04:47:07;;;;;;;49.37;22.17;;;3.60;99.90;;;;;;4974471;28;20230;-64
2020/12/13 04:49:35;;;;;;;48.20;22.33;;;3.70;99.90;;;;;;4974551;28;20278;-64
2020/12/13 04:52:03;;;;;;;65.68;24.70;;;3.70;99.40;;;;;;4974340;28;20281;-64
2020/12/13 04:54:30;;;;;;;56.95;23.33;;;3.70;97.80;;;;;;4974178;28;20180;-61
2020/12/13 04:56:58;;;;;;;54.22;23.38;;;3.50;95.90;;;;;;4974599;28;20206;-61
2020/12/13 04:59:25;;;;;;;60.35;24.65;;;3.50;99.80;;;;;;4976977;28;20527;-61
2020/12/13 05:01:53;;;;;;;56.60;22.08;;;3.40;99.90;;;;;;4978014;28;20226;-61
2020/12/13 05:04:19;;;;;;;55.13;24.17;;;3.50;99.90;;;;;;4977891;28;20214;-61
2020/12/13 05:06:47;;;;;;;60.07;27.40;;;3.60;99.90;;;;;;4978049;28;20176;-61
2020/12/13 05:09:14;;;;;;;53.35;23.00;;;3.70;99.90;;;;;;4978016;28;20590;-61
2020/12/13 05:11:44;;;;;;;59.13;26.10;;;3.70;99.90;;;;;;4977871;28;20196;-61
2020/12/13 05:14:10;;;;;;;49.75;25.50;;;3.60;99.90;;;;;;4976388;28;20188;-61
2020/12/13 05:16:36;;;;;;;60.85;25.73;;;3.50;99.90;;;;;;4977054;28;20581;-62
2020/12/13 05:19:04;;;;;;;48.13;21.23;;;3.50;99.90;;;;;;4977734;28;20200;-61
2020/12/13 05:21:29;;;;;;;50.30;22.52;;;3.40;99.90;;;;;;4977724;28;20242;-61
2020/12/13 05:23:56;;;;;;;48.07;21.67;;;3.30;99.90;;;;;;4976351;28;20184;-61
2020/12/13 05:26:22;;;;;;;66.82;25.15;;;3.40;99.90;;;;;;4977609;28;20176;-61
2020/12/13 05:28:53;;;;;;;62.15;25.17;;;3.40;99.90;;;;;;4977825;28;20214;-61
2020/12/13 05:31:22;;;;;;;61.22;23.90;;;3.40;99.90;;;;;;4977647;28;20180;-62
2020/12/13 05:33:56;;;;;;;73.90;25.38;;;3.50;99.90;;;;;;4977088;28;20191;-62
2020/12/13 05:36:25;;;;;;;59.50;25.27;;;3.40;99.90;;;;;;4977507;28;20660;-61
2020/12/13 05:38:57;;;;;;;56.72;24.25;;;3.50;99.90;;;;;;4977602;28;20266;-61
2020/12/13 05:41:32;;;;;;;53.28;25.85;;;3.30;99.90;;;;;;4977583;28;20247;-61
2020/12/13 05:46:56;;;;;;;65.93;24.33;;;3.30;99.90;;;;;;4977535;28;20199;-62
2020/12/13 05:51:49;;;;;;;59.43;24.00;;;3.40;99.90;;;;;;4977352;28;20187;-62
2020/12/13 05:56:55;;;;;;;56.30;23.45;;;3.30;99.90;;;;;;4976895;28;20183;-61
2020/12/13 05:59:25;;;;;;;55.38;24.63;;;3.40;99.90;;;;;;4976864;28;20211;-61
2020/12/13 06:01:53;;;;;;;55.30;22.25;;;3.40;99.90;;;;;;4976982;28;20187;-61
2020/12/13 06:04:25;;;;;;;66.13;25.45;;;3.30;99.90;;;;;;4976696;28;20632;-61
2020/12/13 06:06:54;;;;;;;50.50;22.35;;;3.30;99.90;;;;;;4976934;28;20192;-61
2020/12/13 06:09:40;;;;;;;56.30;26.10;;;3.20;99.90;;;;;;4976419;28;20180;-62
2020/12/13 06:12:08;;;;;;;57.10;23.85;;;3.20;99.90;;;;;;4976794;28;20199;-63
2020/12/13 06:14:36;;;;;;;55.88;22.73;;;3.10;99.90;;;;;;4976478;28;20184;-62
2020/12/13 06:17:03;;;;;;;48.40;21.63;;;3.10;99.90;;;;;;4976797;28;20226;-62
2020/12/13 06:19:32;;;;;;;50.92;23.40;;;3.10;99.90;;;;;;4959713;28;20263;-62
2020/12/13 06:22:00;;;;;;;56.63;24.95;;;3.10;99.90;;;;;;4976486;28;20180;-62
2020/12/13 06:24:26;;;;;;;51.47;22.08;;;3.10;99.90;;;;;;4975333;28;20180;-62
2020/12/13 06:26:54;;;;;;;57.83;24.05;;;3.10;99.90;;;;;;4976128;28;20505;-62
2020/12/13 06:29:21;;;;;;;48.08;21.58;;;3.20;99.90;;;;;;4976249;28;20246;-64
2020/12/13 06:31:47;;;;;;;50.63;21.60;;;3.10;99.90;;;;;;4976287;28;20475;-64
2020/12/13 06:34:13;;;;;;;57.53;23.77;;;3.10;99.90;;;;;;4976191;28;20544;-64
2020/12/13 06:36:40;;;;;;;54.67;24.53;;;3.10;99.90;;;;;;4976154;28;20311;-64
2020/12/13 06:39:12;;;;;;;57.15;23.50;;;3.10;99.90;;;;;;4976027;28;20204;-62
2020/12/13 06:41:39;;;;;;;62.35;24.15;;;3.30;99.90;;;;;;4975874;28;20266;-61
2020/12/13 06:44:06;;;;;;;49.58;22.65;;;3.30;99.90;;;;;;4975751;28;20192;-61
2020/12/13 06:46:38;;;;;;;44.92;20.05;;;3.30;99.90;;;;;;4975934;28;20194;-61
2020/12/13 06:49:05;;;;;;;56.28;23.13;;;3.20;99.90;;;;;;4976224;28;20259;-64
2020/12/13 06:51:34;;;;;;;53.85;22.42;;;3.20;99.90;;;;;;4976068;28;20271;-64
2020/12/13 06:54:01;;;;;;;67.60;24.70;;;3.10;99.90;;;;;;4975620;28;20187;-64
2020/12/13 06:56:28;;;;;;;53.75;23.58;;;3.10;99.90;;;;;;4975530;28;20203;-64
2020/12/13 06:58:58;;;;;;;63.45;25.00;;;3.20;99.90;;;;;;4975619;28;20605;-62
2020/12/13 07:01:26;;;;;;;50.50;22.23;;;3.40;99.90;;;;;;4975532;28;20279;-61
2020/12/13 07:03:52;;;;;;;55.33;24.02;;;3.30;99.90;;;;;;4975604;28;20199;-62
2020/12/13 07:06:27;;;;;;;54.58;23.02;;;3.30;99.90;;;;;;4975677;28;20182;-62
2020/12/13 07:08:56;;;;;;;51.08;22.05;;;3.30;99.90;;;;;;4975594;28;20696;-65
2020/12/13 07:11:25;;;;;;;56.88;24.95;;;3.30;99.90;;;;;;4975605;28;20219;-65
2020/12/13 07:13:51;;;;;;;55.40;23.80;;;3.40;99.90;;;;;;4975269;28;20190;-65
2020/12/13 07:16:31;;;;;;;52.47;24.45;;;3.50;99.90;;;;;;4975518;28;20187;-64
2020/12/13 07:19:11;;;;;;;63.03;23.13;;;3.40;99.90;;;;;;4975405;28;20533;-64
2020/12/13 07:21:39;;;;;;;54.28;23.95;;;3.30;99.90;;;;;;4974450;28;20206;-64
2020/12/13 07:24:06;;;;;;;54.97;23.25;;;3.40;99.90;;;;;;4974159;28;20242;-65
2020/12/13 07:26:35;;;;;;;56.33;23.73;;;3.50;99.90;;;;;;4975120;28;20198;-62
2020/12/13 07:29:03;;;;;;;56.53;22.98;;;3.50;99.90;;;;;;4975076;28;20199;-61
2020/12/13 07:31:36;;;;;;;50.90;21.40;;;3.40;99.90;;;;;;4975090;28;20188;-64
2020/12/13 07:34:06;;;;;;;53.05;23.17;;;3.40;99.90;;;;;;4975032;28;20194;-62
2020/12/13 07:36:33;;;;;;;64.32;26.65;;;3.30;99.90;;;;;;4975045;28;20180;-64
2020/12/13 07:39:02;;;;;;;52.97;24.63;;;3.30;99.90;;;;;;4975001;28;20210;-62
2020/12/13 07:41:28;;;;;;;63.53;23.08;;;3.30;99.90;;;;;;4975170;28;20598;-64
2020/12/13 07:44:02;;;;;;;78.40;28.17;;;3.30;99.90;;;;;;4975075;28;20263;-61
2020/12/13 07:46:29;;;;;;;68.13;28.23;;;3.30;99.90;;;;;;4974867;28;20199;-61
2020/12/13 07:49:16;;;;;;;61.92;24.10;;;3.40;99.90;;;;;;4974907;28;20275;-63
2020/12/13 07:51:47;;;;;;;62.25;23.70;;;3.40;99.90;;;;;;4975104;28;20179;-62
2020/12/13 07:54:20;;;;;;;59.70;25.33;;;3.50;99.90;;;;;;4974529;28;20176;-62
2020/12/13 07:56:50;;;;;;;61.05;26.10;;;3.50;99.90;;;;;;4974928;28;20180;-61
2020/12/13 07:59:18;;;;;;;65.35;25.58;;;3.50;99.90;;;;;;4973954;28;20279;-62
2020/12/13 08:01:46;;;;;;;52.90;25.55;;;3.50;99.90;;;;;;4974676;28;20179;-64
2020/12/13 08:04:13;;;;;;;79.28;28.83;;;3.50;99.90;;;;;;4974506;28;20183;-61
2020/12/13 08:06:39;;;;;;;68.75;27.17;;;3.50;99.90;;;;;;4974780;28;20188;-64
2020/12/13 08:09:09;;;;;;;63.50;24.97;;;3.60;99.90;;;;;;4975022;28;20233;-64
2020/12/13 08:11:35;;;;;;;55.50;22.40;;;3.60;99.90;;;;;;4974791;28;20455;-64
2020/12/13 08:14:02;;;;;;;66.15;25.50;;;3.70;99.90;;;;;;4973465;28;20277;-64
2020/12/13 08:16:28;;;;;;;69.75;26.08;;;3.90;99.90;;;;;;4974488;28;20518;-62
2020/12/13 08:18:59;;;;;;;55.27;24.77;;;3.90;99.90;;;;;;4974449;28;20220;-62
2020/12/13 08:21:39;;;;;;;61.67;24.60;;;3.90;99.90;;;;;;4974541;28;20629;-63
2020/12/13 08:24:05;;;;;;;75.72;25.50;;;3.90;99.90;;;;;;4974334;28;20180;-63
2020/12/13 08:26:34;;;;;;;72.15;28.25;;;4.00;99.90;;;;;;4974293;28;20176;-62
2020/12/13 08:29:01;;;;;;;68.90;27.20;;;3.90;99.90;;;;;;4974469;28;20180;-64
2020/12/13 08:31:29;;;;;;;68.22;28.13;;;4.00;99.90;;;;;;4979527;28;20198;-65
2020/12/13 08:34:00;;;;;;;72.20;26.83;;;4.00;99.90;;;;;;4985755;28;20258;-62
2020/12/13 08:36:25;;;;;;;77.90;28.52;;;4.00;99.90;;;;;;4986947;28;20203;-64
2020/12/13 08:39:05;;;;;;;67.97;26.97;;;4.00;99.90;;;;;;4989264;28;20203;-61
2020/12/13 08:41:31;;;;;;;62.58;25.15;;;3.80;99.90;;;;;;4998221;28;20179;-62
2020/12/13 08:43:58;;;;;;;69.22;26.65;;;3.90;99.90;;;;;;4998010;28;20192;-62
2020/12/13 08:46:43;;;;;;;63.97;27.27;;;4.00;99.90;;;;;;4997905;28;20175;-65
2020/12/13 08:49:09;;;;;;;85.50;32.55;;;4.20;99.90;;;;;;4997695;28;20179;-65
2020/12/13 08:51:34;;;;;;;77.10;30.57;;;4.10;99.90;;;;;;4997483;28;20221;-63
2020/12/13 08:54:04;;;;;;;74.00;30.13;;;4.00;99.90;;;;;;4997372;28;20202;-65
2020/12/13 08:56:32;;;;;;;63.20;26.17;;;3.90;99.90;;;;;;4993179;28;20198;-62
2020/12/13 08:58:59;;;;;;;63.85;24.55;;;3.90;99.90;;;;;;4988189;28;20294;-65
2020/12/13 09:01:28;;;;;;;73.57;27.80;;;4.00;99.90;;;;;;4984978;28;20272;-65
2020/12/13 09:03:55;;;;;;;67.20;27.38;;;4.00;99.90;;;;;;4994494;28;20183;-65
2020/12/13 09:06:39;;;;;;;67.63;26.95;;;4.10;99.90;;;;;;4996239;28;20183;-61
2020/12/13 09:09:14;;;;;;;65.80;26.40;;;4.10;99.90;;;;;;4997545;28;20193;-66
2020/12/13 09:11:41;;;;;;;63.08;24.80;;;3.90;99.90;;;;;;4997265;28;20190;-65
2020/12/13 09:14:07;;;;;;;69.80;28.92;;;3.90;99.90;;;;;;4995949;28;20613;-63
2020/12/13 09:16:34;;;;;;;78.43;28.17;;;3.80;99.90;;;;;;4997021;28;20187;-62
2020/12/13 09:19:12;;;;;;;77.82;28.10;;;3.80;99.90;;;;;;4997223;28;20215;-65
2020/12/13 09:21:49;;;;;;;58.53;25.70;;;3.90;99.90;;;;;;4987891;28;20211;-65
2020/12/13 09:24:17;;;;;;;59.78;24.75;;;3.90;99.90;;;;;;4976638;28;20184;-65
2020/12/13 09:26:59;;;;;;;73.50;29.33;;;4.10;99.90;;;;;;4977606;28;20223;-65
2020/12/13 09:29:25;;;;;;;74.55;26.95;;;4.10;99.90;;;;;;4977944;28;20238;-65
2020/12/13 09:31:50;;;;;;;88.67;29.97;;;4.10;99.90;;;;;;4978190;28;20188;-62
2020/12/13 09:34:16;;;;;;;72.83;28.00;;;4.20;99.90;;;;;;4977450;28;20188;-65
2020/12/13 09:36:43;;;;;;;57.63;27.30;;;4.10;99.90;;;;;;4975761;28;20188;-65
2020/12/13 09:39:11;;;;;;;63.80;28.33;;;4.10;99.90;;;;;;4976881;28;20215;-64
2020/12/13 09:41:37;;;;;;;56.45;26.08;;;4.20;99.90;;;;;;4976994;28;20203;-65
2020/12/13 09:44:03;;;;;;;64.67;26.60;;;4.30;99.90;;;;;;4975590;28;20263;-64
2020/12/13 09:46:28;;;;;;;54.63;25.30;;;4.30;99.90;;;;;;4976395;28;20643;-65
2020/12/13 09:48:57;;;;;;;64.97;30.43;;;4.30;99.90;;;;;;4975661;28;20203;-65
2020/12/13 09:51:23;;;;;;;69.10;26.58;;;4.30;99.90;;;;;;4975953;28;20260;-65
2020/12/13 09:53:48;;;;;;;66.93;28.43;;;4.60;99.90;;;;;;4976717;28;20179;-65
2020/12/13 09:56:18;;;;;;;61.17;26.40;;;4.50;99.90;;;;;;4976827;28;20437;-65
2020/12/13 09:58:47;;;;;;;64.07;26.02;;;4.60;99.90;;;;;;4976387;28;20255;-64
2020/12/13 10:01:14;;;;;;;66.88;23.92;;;4.70;99.90;;;;;;4969622;28;20180;-63
2020/12/13 10:03:45;;;;;;;68.05;25.40;;;4.80;98.50;;;;;;4976423;28;20267;-64
2020/12/13 10:11:33;;;;;;;68.32;26.35;;;4.60;32.40;;;;;;4977089;28;20247;-61
2020/12/13 10:13:59;;;;;;;70.68;26.58;;;4.60;29.00;;;;;;4976469;28;20613;-62
2020/12/13 10:16:26;;;;;;;62.00;25.92;;;4.70;32.60;;;;;;4976731;28;20211;-64
2020/12/13 10:18:51;;;;;;;70.05;26.15;;;4.70;34.50;;;;;;4975307;28;20208;-64
2020/12/13 10:21:25;;;;;;;58.07;27.70;;;4.70;34.10;;;;;;4975222;28;20184;-64
2020/12/13 10:23:51;;;;;;;63.88;25.48;;;4.90;48.30;;;;;;4976393;28;20509;-64
2020/12/13 10:26:16;;;;;;;56.13;24.60;;;4.80;33.40;;;;;;4970927;28;20579;-65
2020/12/13 10:28:42;;;;;;;56.03;25.87;;;4.70;23.90;;;;;;4971492;28;20192;-65
2020/12/13 10:31:12;;;;;;;57.03;26.33;;;4.70;22.40;;;;;;4971162;28;20254;-65
2020/12/13 10:33:41;;;;;;;63.15;29.20;;;4.70;24.40;;;;;;4973822;28;20195;-64
2020/12/13 10:36:11;;;;;;;62.83;25.58;;;4.60;22.80;;;;;;4976734;28;20181;-64
2020/12/13 10:38:37;;;;;;;67.25;26.77;;;4.60;28.80;;;;;;4976579;28;20207;-64
2020/12/13 10:41:05;;;;;;;70.57;27.33;;;4.60;34.80;;;;;;4976208;28;20272;-64
2020/12/13 10:43:30;;;;;;;69.90;26.77;;;4.80;47.40;;;;;;4974951;28;20195;-64
2020/12/13 10:45:56;;;;;;;65.30;26.40;;;4.80;54.70;;;;;;4976117;28;20356;-64
2020/12/13 10:48:21;;;;;;;61.43;25.83;;;4.90;49.80;;;;;;4975698;28;20179;-64
2020/12/13 10:50:47;;;;;;;60.20;28.20;;;5.00;42.10;;;;;;4975531;28;20278;-65
2020/12/13 10:53:13;;;;;;;63.87;26.90;;;5.10;36.20;;;;;;4975625;28;20180;-64
2020/12/13 10:55:38;;;;;;;59.47;25.27;;;5.10;17.50;;;;;;4975499;28;20187;-64
2020/12/13 10:58:04;;;;;;;61.10;25.40;;;5.00;1.00;;;;;;4975651;28;20220;-64
2020/12/13 11:00:29;;;;;;;59.43;26.40;;;4.90;1.00;;;;;;4975771;28;20743;-65
2020/12/13 11:02:55;;;;;;;63.83;26.07;;;4.90;1.00;;;;;;4985423;28;20633;-66
2020/12/13 11:05:21;;;;;;;59.10;25.47;;;4.90;1.00;;;;;;4981449;28;20176;-66
2020/12/13 11:07:47;;;;;;;73.00;25.50;;;5.00;1.00;;;;;;4975473;28;20188;-66
2020/12/13 11:10:12;;;;;;;73.85;31.38;;;5.10;1.00;;;;;;4974242;28;20247;-65
2020/12/13 11:12:38;;;;;;;82.97;30.90;;;5.10;2.40;;;;;;4975894;28;20242;-67
2020/12/13 11:15:04;;;;;;;61.97;26.73;;;5.20;4.70;;;;;;4974045;28;20176;-66
2020/12/13 11:17:30;;;;;;;72.60;27.50;;;5.30;3.60;;;;;;4975379;28;20215;-67
2020/12/13 11:19:58;;;;;;;69.63;26.17;;;5.40;1.00;;;;;;4978107;28;20212;-67
2020/12/13 11:22:24;;;;;;;72.18;27.13;;;5.20;1.00;;;;;;4975120;28;20173;-66
2020/12/13 11:24:50;;;;;;;66.87;26.50;;;5.00;1.00;;;;;;4975181;28;20180;-68
2020/12/13 11:27:15;;;;;;;111.20;50.27;;;5.10;1.00;;;;;;4975702;28;20250;-65
2020/12/13 11:29:41;;;;;;;72.10;30.13;;;5.10;1.00;;;;;;4975215;28;20346;-66
2020/12/13 11:32:06;;;;;;;70.77;29.53;;;5.00;1.00;;;;;;4974826;28;20188;-66
2020/12/13 11:34:32;;;;;;;82.00;31.37;;;5.00;1.00;;;;;;4974734;28;20187;-61
2020/12/13 11:37:02;;;;;;;71.33;29.50;;;5.10;1.00;;;;;;4975195;28;20609;-63
2020/12/13 11:39:27;;;;;;;63.10;27.05;;;5.00;1.00;;;;;;4973839;28;20215;-64
2020/12/13 11:41:55;;;;;;;54.83;26.33;;;5.00;1.00;;;;;;4975126;28;20186;-64
2020/12/13 11:44:21;;;;;;;73.07;28.17;;;4.90;1.00;;;;;;4974783;28;20606;-65
2020/12/13 11:46:47;;;;;;;64.53;30.05;;;4.90;1.00;;;;;;4974561;28;20601;-65
2020/12/13 11:49:12;;;;;;;63.80;26.33;;;5.10;1.00;;;;;;4975061;28;20184;-60
2020/12/13 11:51:42;;;;;;;65.67;28.60;;;5.30;1.00;;;;;;4975154;28;20691;-67
2020/12/13 11:54:08;;;;;;;65.90;26.17;;;5.20;1.00;;;;;;4973439;28;20179;-64
2020/12/13 11:56:34;;;;;;;57.60;28.77;;;5.40;1.00;;;;;;4974226;28;20183;-66
2020/12/13 11:58:59;;;;;;;68.53;28.60;;;5.50;1.00;;;;;;4973895;28;20255;-66
2020/12/13 12:01:25;;;;;;;55.37;26.03;;;5.50;1.00;;;;;;4974687;28;20242;-66
2020/12/13 12:03:50;;;;;;;70.47;27.50;;;5.50;1.00;;;;;;4974536;28;20175;-64
2020/12/13 12:06:16;;;;;;;65.13;28.60;;;5.40;1.00;;;;;;4974047;28;20188;-63
2020/12/13 12:08:45;;;;;;;67.33;30.03;;;5.30;1.00;;;;;;4973165;28;20188;-60
2020/12/13 12:11:17;;;;;;;64.20;26.48;;;5.10;1.00;;;;;;4974885;28;20188;-59
2020/12/13 12:13:43;;;;;;;62.08;28.70;;;5.20;1.00;;;;;;4973356;28;20199;-60
2020/12/13 12:16:09;;;;;;;51.40;25.93;;;5.50;1.00;;;;;;4974840;28;20195;-64
2020/12/13 12:18:35;;;;;;;64.20;26.40;;;5.80;1.00;;;;;;4974675;28;20477;-65
2020/12/13 12:21:11;;;;;;;68.03;27.30;;;5.70;1.00;;;;;;4974734;28;20186;-65
2020/12/13 12:23:36;;;;;;;58.50;26.80;;;5.70;1.00;;;;;;4975238;28;20502;-67
2020/12/13 12:26:02;;;;;;;55.47;27.50;;;5.70;1.00;;;;;;4974834;28;20179;-66
2020/12/13 12:28:27;;;;;;;56.53;28.03;;;5.70;1.00;;;;;;4974490;28;20218;-66
2020/12/13 12:30:53;;;;;;;60.37;25.50;;;5.70;1.00;;;;;;4974671;28;20639;-60
2020/12/13 12:33:18;;;;;;;59.60;27.10;;;5.80;1.00;;;;;;4974471;28;20598;-65
2020/12/13 12:35:44;;;;;;;55.47;27.13;;;5.80;1.00;;;;;;4975179;28;20574;-65
2020/12/13 12:38:10;;;;;;;59.73;25.30;;;6.00;1.00;;;;;;4974893;28;20541;-63
2020/12/13 12:40:36;;;;;;;58.95;27.90;;;6.10;1.00;;;;;;4974601;28;20180;-65
2020/12/13 12:43:01;;;;;;;55.53;25.70;;;5.80;1.00;;;;;;4974654;28;20184;-60
2020/12/13 12:45:27;;;;;;;55.00;24.53;;;5.80;1.00;;;;;;4973446;28;20514;-60
2020/12/13 12:47:53;;;;;;;58.60;25.00;;;5.70;1.00;;;;;;4974674;28;20278;-61
2020/12/13 12:50:18;;;;;;;47.70;26.10;;;5.80;1.00;;;;;;4975173;28;20181;-59
2020/12/13 12:52:44;;;;;;;59.43;25.20;;;5.70;1.00;;;;;;4974696;28;20180;-60
2020/12/13 12:55:09;;;;;;;56.33;25.70;;;5.80;1.00;;;;;;4974178;28;20195;-60